createdAt,value
2022-09-28T00:01:22.737Z,88.79
2022-09-28T00:03:51.445Z,89.84
2022-09-28T00:06:20.486Z,89.56
2022-09-28T00:08:47.371Z,88.97
2022-09-28T00:11:15.534Z,88.67
2022-09-28T00:13:43.886Z,88.10
2022-09-28T00:16:14.858Z,87.91
2022-09-28T00:18:42.069Z,88.14
2022-09-28T00:21:17.116Z,88.67
2022-09-28T00:24:02.867Z,88.13
2022-09-28T00:26:31.881Z,88.90
2022-09-28T00:29:00.797Z,88.56
2022-09-28T00:31:30.203Z,88.71
2022-09-28T00:33:57.582Z,89.09
2022-09-28T00:36:26.994Z,88.27
2022-09-28T00:38:56.427Z,88.73
2022-09-28T00:41:24.823Z,88.77
2022-09-28T00:43:51.658Z,88.98
2022-09-28T00:46:28.924Z,88.92
2022-09-28T00:49:03.185Z,88.68
2022-09-28T00:51:31.120Z,88.85
2022-09-28T00:54:03.013Z,88.57
2022-09-28T00:56:34.380Z,89.19
2022-09-28T00:59:01.873Z,89.34
2022-09-28T01:01:28.618Z,89.18
2022-09-28T01:03:55.072Z,89.91
2022-09-28T01:06:27.506Z,89.79
2022-09-28T01:08:58.611Z,90.00
2022-09-28T01:11:26.225Z,89.25
2022-09-28T01:13:56.613Z,88.62
2022-09-28T01:16:35.335Z,89.35
2022-09-28T01:19:14.097Z,89.27
2022-09-28T01:22:08.619Z,88.70
2022-09-28T01:24:40.876Z,88.53
2022-09-28T01:27:11.607Z,88.81
2022-09-28T01:29:50.043Z,89.02
2022-09-28T01:32:57.628Z,88.79
2022-09-28T01:35:31.651Z,89.14
2022-09-28T01:38:22.615Z,89.21
2022-09-28T01:40:50.907Z,89.15
2022-09-28T01:43:23.066Z,90.21
2022-09-28T01:46:16.428Z,89.57
2022-09-28T01:48:51.689Z,89.16
2022-09-28T01:51:25.963Z,90.25
2022-09-28T01:53:58.943Z,89.82
2022-09-28T01:56:29.857Z,90.10
2022-09-28T01:59:12.562Z,90.16
2022-09-28T02:02:06.398Z,90.13
2022-09-28T02:04:40.246Z,90.32
2022-09-28T02:07:12.835Z,90.52
2022-09-28T02:09:44.312Z,91.68
2022-09-28T02:12:34.127Z,91.44
2022-09-28T02:15:27.697Z,91.12
2022-09-28T02:17:54.965Z,91.97
2022-09-28T02:20:23.852Z,91.91
2022-09-28T02:22:53.440Z,91.83
2022-09-28T02:25:40.251Z,92.42
2022-09-28T02:28:09.805Z,92.81
2022-09-28T02:30:39.833Z,92.51
2022-09-28T02:33:11.108Z,92.97
2022-09-28T02:35:39.574Z,93.20
2022-09-28T02:38:06.078Z,92.99
2022-09-28T02:40:35.066Z,93.59
2022-09-28T02:43:45.405Z,94.05
2022-09-28T02:46:28.246Z,94.31
2022-09-28T02:49:21.731Z,94.40
2022-09-28T02:51:57.791Z,94.64
2022-09-28T02:54:33.380Z,94.59
2022-09-28T02:57:44.571Z,94.85
2022-09-28T03:00:19.770Z,94.94
2022-09-28T03:02:55.320Z,95.20
2022-09-28T03:06:06.968Z,94.86
2022-09-28T03:08:49.218Z,96.05
2022-09-28T03:11:23.483Z,96.34
2022-09-28T03:13:51.686Z,96.18
2022-09-28T03:16:21.327Z,96.50
2022-09-28T03:18:50.985Z,96.00
2022-09-28T03:21:17.545Z,95.89
2022-09-28T03:23:44.142Z,96.50
2022-09-28T03:26:12.033Z,96.55
2022-09-28T03:28:38.691Z,96.39
2022-09-28T03:31:05.427Z,96.80
2022-09-28T03:33:32.200Z,96.55
2022-09-28T03:36:01.511Z,96.96
2022-09-28T03:38:28.074Z,96.88
2022-09-28T03:40:59.994Z,97.27
2022-09-28T03:43:28.239Z,97.60
2022-09-28T03:45:59.980Z,97.96
2022-09-28T03:48:35.287Z,97.11
2022-09-28T03:51:04.529Z,97.39
2022-09-28T03:53:32.652Z,97.40
2022-09-28T03:56:08.647Z,96.88
2022-09-28T03:58:35.393Z,97.34
2022-09-28T04:01:09.234Z,97.12
2022-09-28T04:03:38.665Z,97.17
2022-09-28T04:06:05.235Z,97.63
2022-09-28T04:08:31.943Z,97.44
2022-09-28T04:11:06.589Z,97.83
2022-09-28T04:13:33.200Z,97.08
2022-09-28T04:16:01.515Z,97.03
2022-09-28T04:18:32.652Z,97.47
2022-09-28T04:21:04.578Z,97.68
2022-09-28T04:23:31.221Z,98.38
2022-09-28T04:25:57.858Z,97.68
2022-09-28T04:28:43.608Z,97.83
2022-09-28T04:31:16.650Z,97.25
2022-09-28T04:33:43.257Z,97.47
2022-09-28T04:36:11.012Z,97.78
2022-09-28T04:38:52.313Z,98.05
2022-09-28T04:41:22.584Z,97.82
2022-09-28T04:43:49.627Z,97.83
2022-09-28T04:46:16.320Z,97.68
2022-09-28T04:48:42.961Z,97.98
2022-09-28T04:51:09.659Z,97.64
2022-09-28T04:53:36.293Z,98.08
2022-09-28T04:56:06.358Z,98.04
2022-09-28T04:58:35.404Z,98.00
2022-09-28T05:01:07.957Z,97.94
2022-09-28T05:03:34.496Z,97.29
2022-09-28T05:06:01.509Z,96.95
2022-09-28T05:08:28.664Z,96.93
2022-09-28T05:11:00.523Z,96.89
2022-09-28T05:13:28.689Z,96.82
2022-09-28T05:15:59.667Z,96.84
2022-09-28T05:18:28.449Z,97.20
2022-09-28T05:20:54.916Z,97.56
2022-09-28T05:23:21.455Z,97.43
2022-09-28T05:25:48.218Z,97.37
2022-09-28T05:28:14.834Z,97.19
2022-09-28T05:30:41.417Z,97.55
2022-09-28T05:33:09.121Z,97.50
2022-09-28T05:35:36.433Z,97.27
2022-09-28T05:38:04.836Z,97.44
2022-09-28T05:40:32.156Z,97.87
2022-09-28T05:43:00.838Z,97.53
2022-09-28T05:45:30.485Z,97.65
2022-09-28T05:47:57.215Z,97.17
2022-09-28T05:50:24.600Z,96.93
2022-09-28T05:53:01.789Z,97.51
2022-09-28T05:55:31.913Z,97.35
2022-09-28T05:58:06.083Z,97.75
2022-09-28T06:00:33.611Z,97.37
2022-09-28T06:03:08.051Z,97.76
2022-09-28T06:05:36.522Z,97.89
2022-09-28T06:08:07.119Z,97.96
2022-09-28T06:10:37.610Z,98.51
2022-09-28T06:13:07.642Z,98.15
2022-09-28T06:15:41.842Z,98.23
2022-09-28T06:18:17.050Z,97.91
2022-09-28T06:20:43.656Z,97.67
2022-09-28T06:23:11.960Z,97.28
2022-09-28T06:25:39.231Z,97.93
2022-09-28T06:28:14.079Z,97.81
2022-09-28T06:30:41.990Z,98.10
2022-09-28T06:33:12.838Z,97.41
2022-09-28T06:35:40.782Z,97.87
2022-09-28T06:38:07.961Z,97.92
2022-09-28T06:40:34.884Z,98.01
2022-09-28T06:43:02.668Z,98.32
2022-09-28T06:45:30.510Z,98.03
2022-09-28T06:47:59.553Z,98.04
2022-09-28T06:50:28.130Z,97.89
2022-09-28T06:52:55.383Z,97.85
2022-09-28T06:55:22.340Z,98.90
2022-09-28T06:58:00.310Z,98.54
2022-09-28T07:00:28.894Z,98.00
2022-09-28T07:02:55.391Z,97.77
2022-09-28T07:05:27.302Z,98.34
2022-09-28T07:07:58.227Z,97.80
2022-09-28T07:10:27.786Z,97.34
2022-09-28T07:12:55.809Z,98.16
2022-09-28T07:15:23.477Z,98.07
2022-09-28T07:17:59.644Z,97.78
2022-09-28T07:20:29.364Z,96.45
2022-09-28T07:23:11.696Z,97.11
2022-09-28T07:25:48.045Z,96.75
2022-09-28T07:28:16.817Z,97.04
2022-09-28T07:30:44.859Z,96.11
2022-09-28T07:33:14.513Z,95.71
2022-09-28T07:35:44.085Z,95.75
2022-09-28T07:38:11.347Z,94.58
2022-09-28T07:40:56.549Z,94.77
2022-09-28T07:43:23.184Z,93.81
2022-09-28T07:45:54.140Z,92.53
2022-09-28T07:48:21.920Z,92.63
2022-09-28T07:50:53.780Z,91.64
2022-09-28T07:53:21.922Z,91.38
2022-09-28T07:55:53.027Z,90.52
2022-09-28T07:58:20.648Z,89.90
2022-09-28T08:00:51.222Z,90.65
2022-09-28T08:03:18.713Z,89.56
2022-09-28T08:05:49.010Z,86.69
2022-09-28T08:08:15.975Z,87.15
2022-09-28T08:10:46.838Z,86.84
2022-09-28T08:13:15.377Z,86.85
2022-09-28T08:15:42.644Z,85.83
2022-09-28T08:18:09.889Z,87.58
2022-09-28T08:20:55.176Z,87.78
2022-09-28T08:23:22.020Z,86.99
2022-09-28T08:25:49.908Z,87.20
2022-09-28T08:28:17.710Z,85.42
2022-09-28T08:30:45.906Z,86.96
2022-09-28T08:33:21.369Z,84.89
2022-09-28T08:35:54.601Z,85.07
2022-09-28T08:38:23.369Z,84.56
2022-09-28T08:41:04.271Z,83.83
2022-09-28T08:43:51.750Z,83.20
2022-09-28T08:46:25.095Z,85.89
2022-09-28T08:49:36.274Z,86.28
2022-09-28T08:52:18.031Z,86.21
2022-09-28T08:55:05.416Z,82.51
2022-09-28T08:57:51.169Z,79.01
2022-09-28T09:00:22.972Z,78.50
2022-09-28T09:02:52.430Z,76.92
2022-09-28T09:05:24.285Z,76.62
2022-09-28T09:08:37.267Z,79.03
2022-09-28T09:11:21.436Z,76.90
2022-09-28T09:14:02.274Z,78.97
2022-09-28T09:16:37.895Z,80.49
2022-09-28T09:19:13.078Z,79.77
2022-09-28T09:21:51.128Z,78.26
2022-09-28T09:24:28.555Z,80.20
2022-09-28T09:27:06.554Z,76.89
2022-09-28T09:30:22.087Z,78.07
2022-09-28T09:33:33.144Z,78.67
2022-09-28T09:36:12.207Z,79.00
2022-09-28T09:38:45.847Z,79.49
2022-09-28T09:41:46.475Z,78.89
2022-09-28T09:44:33.570Z,74.20
2022-09-28T09:47:18.976Z,73.65
2022-09-28T09:49:48.501Z,72.20
2022-09-28T09:52:28.299Z,73.39
2022-09-28T09:55:05.518Z,73.79
2022-09-28T09:57:45.703Z,75.23
2022-09-28T10:00:14.676Z,76.21
2022-09-28T10:02:44.073Z,77.29
2022-09-28T10:05:10.507Z,77.05
2022-09-28T10:07:48.756Z,78.13
2022-09-28T10:10:29.398Z,77.11
2022-09-28T10:12:56.460Z,77.51
2022-09-28T10:15:33.322Z,78.50
2022-09-28T10:18:11.133Z,77.16
2022-09-28T10:20:43.070Z,76.58
2022-09-28T10:23:20.370Z,73.41
2022-09-28T10:25:53.285Z,69.76
2022-09-28T10:28:34.150Z,67.66
2022-09-28T10:31:01.944Z,66.54
2022-09-28T10:33:33.867Z,65.21
2022-09-28T10:36:05.196Z,67.81
2022-09-28T10:38:40.303Z,67.90
2022-09-28T10:41:13.654Z,64.40
2022-09-28T10:44:06.568Z,64.72
2022-09-28T10:46:35.408Z,65.93
2022-09-28T10:49:14.675Z,65.78
2022-09-28T10:51:54.815Z,64.80
2022-09-28T10:54:30.010Z,64.42
2022-09-28T10:57:10.300Z,62.39
2022-09-28T10:59:42.089Z,62.60
2022-09-28T11:02:35.502Z,60.87
2022-09-28T11:05:11.834Z,59.06
2022-09-28T11:07:55.560Z,59.88
2022-09-28T11:10:31.377Z,59.53
2022-09-28T11:13:05.060Z,58.48
2022-09-28T11:15:37.899Z,59.12
2022-09-28T11:18:31.650Z,60.38
2022-09-28T11:21:12.948Z,60.72
2022-09-28T11:23:42.215Z,59.58
2022-09-28T11:26:09.624Z,58.35
2022-09-28T11:28:40.759Z,57.02
2022-09-28T11:31:22.887Z,56.40
2022-09-28T11:34:01.408Z,58.08
2022-09-28T11:36:40.500Z,59.16
2022-09-28T11:40:00.281Z,55.51
2022-09-28T11:42:46.710Z,55.52
2022-09-28T11:45:19.524Z,56.92
2022-09-28T11:47:55.018Z,58.50
2022-09-28T11:50:26.556Z,56.77
2022-09-28T11:53:20.735Z,54.76
2022-09-28T11:56:08.826Z,55.74
2022-09-28T11:58:42.257Z,54.70
2022-09-28T12:01:18.717Z,53.62
2022-09-28T12:04:01.252Z,51.84
2022-09-28T12:06:56.296Z,51.44
2022-09-28T12:09:34.279Z,52.64
2022-09-28T12:12:12.538Z,52.49
2022-09-28T12:14:43.173Z,53.59
2022-09-28T12:17:29.793Z,52.03
2022-09-28T12:20:19.041Z,52.92
2022-09-28T12:23:11.840Z,51.57
2022-09-28T12:25:49.971Z,50.28
2022-09-28T12:28:39.295Z,51.53
2022-09-28T12:31:24.261Z,51.39
2022-09-28T12:33:55.041Z,51.30
2022-09-28T12:36:50.049Z,53.10
2022-09-28T12:39:41.197Z,52.74
2022-09-28T12:42:40.343Z,54.25
2022-09-28T12:45:09.927Z,53.81
2022-09-28T12:47:58.211Z,55.42
2022-09-28T12:50:38.460Z,55.88
2022-09-28T12:53:35.281Z,53.50
2022-09-28T12:56:21.699Z,54.40
2022-09-28T12:59:10.949Z,55.36
2022-09-28T13:02:31.363Z,53.66
2022-09-28T13:05:13.425Z,54.77
2022-09-28T13:08:10.299Z,54.43
2022-09-28T13:11:07.862Z,51.80
2022-09-28T13:14:03.299Z,51.00
2022-09-28T13:17:08.849Z,51.27
2022-09-28T13:19:51.022Z,52.47
2022-09-28T13:22:43.479Z,53.17
2022-09-28T13:25:16.660Z,52.30
2022-09-28T13:27:52.009Z,52.71
2022-09-28T13:30:19.477Z,50.14
2022-09-28T13:32:47.866Z,50.37
2022-09-28T13:35:19.511Z,51.01
2022-09-28T13:37:46.540Z,49.85
2022-09-28T13:40:13.705Z,49.22
2022-09-28T13:42:48.467Z,50.34
2022-09-28T13:45:22.234Z,51.28
2022-09-28T13:47:51.925Z,51.91
2022-09-28T13:50:32.316Z,51.90
2022-09-28T13:53:26.799Z,51.80
2022-09-28T13:56:18.548Z,52.34
2022-09-28T13:58:51.521Z,52.27
2022-09-28T14:01:23.322Z,51.44
2022-09-28T14:04:16.258Z,51.95
2022-09-28T14:06:51.397Z,53.13
2022-09-28T14:09:26.285Z,52.61
2022-09-28T14:12:01.313Z,52.09
2022-09-28T14:14:31.156Z,53.16
2022-09-28T14:17:27.296Z,51.58
2022-09-28T14:20:04.629Z,52.52
2022-09-28T14:22:31.061Z,52.56
2022-09-28T14:25:26.489Z,52.72
2022-09-28T14:28:12.636Z,51.71
2022-09-28T14:30:42.066Z,50.00
2022-09-28T14:33:20.780Z,50.85
2022-09-28T14:35:56.291Z,50.45
2022-09-28T14:38:49.745Z,52.43
2022-09-28T14:41:17.588Z,53.40
2022-09-28T14:43:44.137Z,54.25
2022-09-28T14:46:22.568Z,55.14
2022-09-28T14:48:57.522Z,54.79
2022-09-28T14:51:26.238Z,56.30
2022-09-28T14:53:53.777Z,55.70
2022-09-28T14:56:20.919Z,54.56
2022-09-28T14:58:56.089Z,53.42
2022-09-28T15:01:24.792Z,52.72
2022-09-28T15:03:58.714Z,53.52
2022-09-28T15:06:31.128Z,52.26
2022-09-28T15:08:58.447Z,52.21
2022-09-28T15:11:26.404Z,53.04
2022-09-28T15:14:06.545Z,53.34
2022-09-28T15:16:33.661Z,52.86
2022-09-28T15:19:32.069Z,51.64
2022-09-28T15:21:59.204Z,51.59
2022-09-28T15:24:34.332Z,52.44
2022-09-28T15:27:02.870Z,52.66
2022-09-28T15:29:33.318Z,52.98
2022-09-28T15:32:01.570Z,53.97
2022-09-28T15:34:51.650Z,54.02
2022-09-28T15:37:28.504Z,53.34
2022-09-28T15:39:58.217Z,53.04
2022-09-28T15:42:25.635Z,53.36
2022-09-28T15:45:22.199Z,53.66
2022-09-28T15:47:48.826Z,54.24
2022-09-28T15:50:29.942Z,54.61
2022-09-28T15:53:03.221Z,54.48
2022-09-28T15:55:39.217Z,56.01
2022-09-28T15:58:18.246Z,56.64
2022-09-28T16:00:48.370Z,57.02
2022-09-28T16:03:27.867Z,57.26
2022-09-28T16:05:57.370Z,57.70
2022-09-28T16:08:42.717Z,58.28
2022-09-28T16:11:18.393Z,58.28
2022-09-28T16:14:08.881Z,59.10
2022-09-28T16:16:46.676Z,57.67
2022-09-28T16:19:25.598Z,53.11
2022-09-28T16:22:07.512Z,52.49
2022-09-28T16:24:39.948Z,49.65
2022-09-28T16:27:23.140Z,48.56
2022-09-28T16:30:27.169Z,48.86
2022-09-28T16:32:56.414Z,51.18
2022-09-28T16:35:56.820Z,53.83
2022-09-28T16:38:23.401Z,55.14
2022-09-28T16:40:54.948Z,55.89
2022-09-28T16:43:32.608Z,56.34
2022-09-28T16:46:05.172Z,57.29
2022-09-28T16:48:38.915Z,57.96
2022-09-28T16:51:10.631Z,59.16
2022-09-28T16:54:01.293Z,59.07
2022-09-28T16:56:28.048Z,59.35
2022-09-28T16:58:55.104Z,59.69
2022-09-28T17:01:25.452Z,59.70
2022-09-28T17:03:52.150Z,61.05
2022-09-28T17:06:20.775Z,61.94
2022-09-28T17:08:47.633Z,61.12
2022-09-28T17:11:22.591Z,62.11
2022-09-28T17:13:59.080Z,61.99
2022-09-28T17:16:57.633Z,63.38
2022-09-28T17:19:23.679Z,63.12
2022-09-28T17:21:51.565Z,63.17
2022-09-28T17:24:21.856Z,64.65
2022-09-28T17:26:52.395Z,65.24
2022-09-28T17:29:19.198Z,64.08
2022-09-28T17:31:47.033Z,64.35
2022-09-28T17:34:20.991Z,63.30
2022-09-28T17:36:51.587Z,62.84
2022-09-28T17:39:25.822Z,62.53
2022-09-28T17:41:52.388Z,62.46
2022-09-28T17:44:20.387Z,62.52
2022-09-28T17:46:48.936Z,63.47
2022-09-28T17:49:17.006Z,63.54
2022-09-28T17:51:43.648Z,63.93
2022-09-28T17:54:12.971Z,65.36
2022-09-28T17:56:39.711Z,64.13
2022-09-28T17:59:13.379Z,63.74
2022-09-28T18:01:40.717Z,64.34
2022-09-28T18:04:13.135Z,64.66
2022-09-28T18:06:47.273Z,64.13
2022-09-28T18:09:15.354Z,65.16
2022-09-28T18:11:45.361Z,66.19
2022-09-28T18:14:12.216Z,66.78
2022-09-28T18:16:38.939Z,65.43
2022-09-28T18:19:05.454Z,67.31
2022-09-28T18:21:35.457Z,66.72
2022-09-28T18:24:02.071Z,65.56
2022-09-28T18:26:28.754Z,66.51
2022-09-28T18:28:55.510Z,66.14
2022-09-28T18:31:22.661Z,66.57
2022-09-28T18:33:49.339Z,67.82
2022-09-28T18:36:16.059Z,67.74
2022-09-28T18:38:42.742Z,67.24
2022-09-28T18:41:15.742Z,66.63
2022-09-28T18:43:48.006Z,67.93
2022-09-28T18:46:15.078Z,68.72
2022-09-28T18:48:41.787Z,67.83
2022-09-28T18:51:09.482Z,67.56
2022-09-28T18:53:36.830Z,68.53
2022-09-28T18:56:14.730Z,70.42
2022-09-28T18:58:42.707Z,69.59
2022-09-28T19:04:06.382Z,71.24
2022-09-28T19:06:40.704Z,72.16
2022-09-28T19:09:08.449Z,72.76
2022-09-28T19:11:35.509Z,74.01
2022-09-28T19:14:03.679Z,72.28
2022-09-28T19:16:35.154Z,72.21
2022-09-28T19:19:03.271Z,74.30
2022-09-28T19:21:34.383Z,73.43
2022-09-28T19:24:02.335Z,72.54
2022-09-28T19:26:32.973Z,75.67
2022-09-28T19:28:59.990Z,76.62
2022-09-28T19:31:27.149Z,75.26
2022-09-28T19:33:53.715Z,73.57
2022-09-28T19:36:24.016Z,75.67
2022-09-28T19:38:56.374Z,74.05
2022-09-28T19:41:46.042Z,73.21
2022-09-28T19:44:25.078Z,73.15
2022-09-28T19:47:14.146Z,73.80
2022-09-28T19:49:41.076Z,74.12
2022-09-28T19:52:16.159Z,73.88
2022-09-28T19:54:59.873Z,75.90
2022-09-28T19:57:29.191Z,76.56
2022-09-28T20:00:01.783Z,75.34
2022-09-28T20:02:29.630Z,74.62
2022-09-28T20:04:56.409Z,75.37
2022-09-28T20:07:28.813Z,74.90
2022-09-28T20:09:55.476Z,76.24
2022-09-28T20:12:22.474Z,76.20
2022-09-28T20:14:49.142Z,76.02
2022-09-28T20:17:15.790Z,76.05
2022-09-28T20:19:42.312Z,75.94
2022-09-28T20:22:08.990Z,77.54
2022-09-28T20:24:35.517Z,75.88
2022-09-28T20:27:02.587Z,75.63
2022-09-28T20:29:31.672Z,76.29
2022-09-28T20:32:03.780Z,75.89
2022-09-28T20:34:30.446Z,75.89
2022-09-28T20:36:57.064Z,79.82
2022-09-28T20:39:25.900Z,81.95
2022-09-28T20:41:52.464Z,80.11
2022-09-28T20:44:19.232Z,78.10
2022-09-28T20:46:50.203Z,79.70
2022-09-28T20:49:17.261Z,79.15
2022-09-28T20:51:43.832Z,80.78
2022-09-28T20:54:10.316Z,81.90
2022-09-28T20:56:39.795Z,79.94
2022-09-28T20:59:12.958Z,79.33
2022-09-28T21:01:40.473Z,79.15
2022-09-28T21:04:08.388Z,79.49
2022-09-28T21:06:37.248Z,79.64
2022-09-28T21:09:04.974Z,81.52
2022-09-28T21:11:33.005Z,80.14
2022-09-28T21:14:01.807Z,82.05
2022-09-28T21:16:30.414Z,82.28
2022-09-28T21:19:08.537Z,82.13
2022-09-28T21:21:35.291Z,81.63
2022-09-28T21:24:02.248Z,83.24
2022-09-28T21:26:31.167Z,82.09
2022-09-28T21:29:00.186Z,82.49
2022-09-28T21:31:29.905Z,82.50
2022-09-28T21:33:57.756Z,83.13
2022-09-28T21:36:25.135Z,82.49
2022-09-28T21:38:56.102Z,82.91
2022-09-28T21:41:24.232Z,83.82
2022-09-28T21:43:51.336Z,83.05
2022-09-28T21:46:18.106Z,82.78
2022-09-28T21:48:45.014Z,84.89
2022-09-28T21:51:14.470Z,83.70
2022-09-28T21:53:41.255Z,84.79
2022-09-28T21:56:11.597Z,84.08
2022-09-28T21:58:40.175Z,85.77
2022-09-28T22:01:16.571Z,85.41
2022-09-28T22:03:45.055Z,85.68
2022-09-28T22:06:11.775Z,86.20
2022-09-28T22:08:38.918Z,86.06
2022-09-28T22:11:11.251Z,86.16
2022-09-28T22:13:58.386Z,86.14
2022-09-28T22:16:27.908Z,85.73
2022-09-28T22:18:54.702Z,87.15
2022-09-28T22:21:23.964Z,87.28
2022-09-28T22:23:51.261Z,86.12
2022-09-28T22:26:23.564Z,87.04
2022-09-28T22:28:54.604Z,87.22
2022-09-28T22:31:27.129Z,87.02
2022-09-28T22:33:53.922Z,87.33
2022-09-28T22:36:21.113Z,87.17
2022-09-28T22:38:49.007Z,87.44
2022-09-28T22:41:18.179Z,87.95
2022-09-28T22:43:44.789Z,87.37
2022-09-28T22:46:14.106Z,87.58
2022-09-28T22:48:42.517Z,88.51
2022-09-28T22:51:09.067Z,88.52
2022-09-28T22:53:37.873Z,88.33
2022-09-28T22:56:05.730Z,89.06
2022-09-28T22:58:36.564Z,88.71
2022-09-28T23:01:22.737Z,89.47
2022-09-28T23:03:50.929Z,89.05
2022-09-28T23:06:19.910Z,89.08
2022-09-28T23:08:47.854Z,89.13
2022-09-28T23:11:15.248Z,89.62
2022-09-28T23:13:42.086Z,89.79
2022-09-28T23:16:11.750Z,88.88
2022-09-28T23:18:42.732Z,89.09
2022-09-28T23:21:18.351Z,89.32
2022-09-28T23:23:46.145Z,88.48
2022-09-28T23:26:18.342Z,88.41
2022-09-28T23:28:45.285Z,88.86
2022-09-28T23:31:23.728Z,89.14
2022-09-28T23:33:50.818Z,89.58
2022-09-28T23:36:18.065Z,89.55
2022-09-28T23:38:45.019Z,89.03
2022-09-28T23:41:11.734Z,89.69
2022-09-28T23:43:38.342Z,89.47
2022-09-28T23:46:05.459Z,89.97
2022-09-28T23:48:32.233Z,89.50
2022-09-28T23:50:59.341Z,89.81
2022-09-28T23:53:26.616Z,89.35
2022-09-28T23:55:53.269Z,89.47
2022-09-28T23:58:19.884Z,89.49
